Colvin, New York
Current Conditions -  °F | °C
As of 6:54 AM on Monday 26 Jan 2015 (Local Time) from KSYR Reporting Station
Broken Clouds Broken Clouds  
Wind Chill: -8°   Ceiling: 8000
Heat Index:   Visibility: 10mi
Dew Point: -2°   Wind: 7mph
Humidity: 76%   Direction: 60°ENE
Pressure: 30.02"   Gusts: NA
Location:  43.0062°N, 76.1429°W
Report Text: KSYR 261154Z 06006KT 10SM BKN080 BKN090 M16/M19 A3002 RMK AO2 SLP172 4/002 T11561189 11139 21161 56013 $
Loading
Personal Weather Stations






























Interactive Weather Map New forecast layout! Learn more

10-Day Weather Forecast

Advertisements
Track Severe Weather on mobile